sensor_id;sensor_type;location;lat;lon;timestamp;pressure;altitude;pressure_sealevel;temperature;humidity
70338;BME280;57757;53.198;19.646;2023-05-01T00:01:02;100850.74;;;4.50;38.59
70338;BME280;57757;53.198;19.646;2023-05-01T00:03:32;100851.35;;;4.45;38.63
70338;BME280;57757;53.198;19.646;2023-05-01T00:06:03;100855.94;;;4.39;38.74
70338;BME280;57757;53.198;19.646;2023-05-01T00:08:32;100853.67;;;4.36;38.83
70338;BME280;57757;53.198;19.646;2023-05-01T00:11:03;100855.67;;;4.32;38.91
70338;BME280;57757;53.198;19.646;2023-05-01T00:13:32;100853.72;;;4.26;38.98
70338;BME280;57757;53.198;19.646;2023-05-01T00:16:00;100856.59;;;4.22;39.09
70338;BME280;57757;53.198;19.646;2023-05-01T00:18:31;100858.77;;;4.17;39.10
70338;BME280;57757;53.198;19.646;2023-05-01T00:20:58;100855.62;;;4.15;39.18
70338;BME280;57757;53.198;19.646;2023-05-01T00:23:26;100855.79;;;4.13;39.29
70338;BME280;57757;53.198;19.646;2023-05-01T00:25:54;100855.42;;;4.12;39.22
70338;BME280;57757;53.198;19.646;2023-05-01T00:28:21;100854.54;;;4.11;39.41
70338;BME280;57757;53.198;19.646;2023-05-01T00:30:49;100854.52;;;4.09;39.47
70338;BME280;57757;53.198;19.646;2023-05-01T00:33:17;100855.52;;;4.07;39.66
70338;BME280;57757;53.198;19.646;2023-05-01T00:35:45;100850.65;;;4.03;39.79
70338;BME280;57757;53.198;19.646;2023-05-01T00:38:13;100848.91;;;4.02;39.93
70338;BME280;57757;53.198;19.646;2023-05-01T00:40:44;100850.41;;;3.98;39.85
70338;BME280;57757;53.198;19.646;2023-05-01T00:43:12;100847.95;;;3.95;39.95
70338;BME280;57757;53.198;19.646;2023-05-01T00:45:43;100852.23;;;3.93;39.97
70338;BME280;57757;53.198;19.646;2023-05-01T00:48:13;100851.52;;;3.91;40.13
70338;BME280;57757;53.198;19.646;2023-05-01T00:50:43;100848.89;;;3.88;40.16
70338;BME280;57757;53.198;19.646;2023-05-01T00:53:12;100847.98;;;3.84;40.17
70338;BME280;57757;53.198;19.646;2023-05-01T00:55:41;100847.59;;;3.81;40.33
70338;BME280;57757;53.198;19.646;2023-05-01T00:58:10;100848.95;;;3.79;40.51
70338;BME280;57757;53.198;19.646;2023-05-01T01:00:38;100849.08;;;3.77;40.55
70338;BME280;57757;53.198;19.646;2023-05-01T01:03:06;100847.69;;;3.75;40.48
70338;BME280;57757;53.198;19.646;2023-05-01T01:05:39;100847.46;;;3.73;40.56
70338;BME280;57757;53.198;19.646;2023-05-01T01:08:26;100848.45;;;3.69;40.64
70338;BME280;57757;53.198;19.646;2023-05-01T01:13:42;100845.19;;;3.58;40.76
70338;BME280;57757;53.198;19.646;2023-05-01T01:22:10;100845.02;;;3.48;41.06
70338;BME280;57757;53.198;19.646;2023-05-01T01:35:54;100839.20;;;3.28;41.38
70338;BME280;57757;53.198;19.646;2023-05-01T01:38:31;100838.29;;;3.25;41.47
70338;BME280;57757;53.198;19.646;2023-05-01T01:41:19;100838.41;;;3.21;41.43
70338;BME280;57757;53.198;19.646;2023-05-01T01:43:54;100837.48;;;3.18;41.55
70338;BME280;57757;53.198;19.646;2023-05-01T01:46:34;100834.32;;;3.14;41.48
70338;BME280;57757;53.198;19.646;2023-05-01T01:49:12;100832.36;;;3.10;41.68
70338;BME280;57757;53.198;19.646;2023-05-01T01:51:42;100835.91;;;3.06;41.59
70338;BME280;57757;53.198;19.646;2023-05-01T01:54:12;100837.02;;;3.01;41.69
70338;BME280;57757;53.198;19.646;2023-05-01T01:56:42;100836.58;;;2.95;41.82
70338;BME280;57757;53.198;19.646;2023-05-01T01:59:12;100832.04;;;2.91;41.78
70338;BME280;57757;53.198;19.646;2023-05-01T02:01:42;100834.03;;;2.87;41.92
70338;BME280;57757;53.198;19.646;2023-05-01T02:04:12;100831.88;;;2.82;41.96
70338;BME280;57757;53.198;19.646;2023-05-01T02:06:43;100830.36;;;2.74;41.83
70338;BME280;57757;53.198;19.646;2023-05-01T02:09:15;100829.55;;;2.68;41.92
70338;BME280;57757;53.198;19.646;2023-05-01T02:11:44;100830.31;;;2.63;41.96
70338;BME280;57757;53.198;19.646;2023-05-01T02:14:13;100830.05;;;2.58;41.86
70338;BME280;57757;53.198;19.646;2023-05-01T02:16:43;100828.23;;;2.54;41.88
70338;BME280;57757;53.198;19.646;2023-05-01T02:19:13;100826.64;;;2.51;41.98
70338;BME280;57757;53.198;19.646;2023-05-01T02:21:43;100822.25;;;2.46;41.96
70338;BME280;57757;53.198;19.646;2023-05-01T02:24:12;100818.02;;;2.40;42.08
70338;BME280;57757;53.198;19.646;2023-05-01T02:26:42;100818.64;;;2.36;42.06
70338;BME280;57757;53.198;19.646;2023-05-01T02:29:10;100818.60;;;2.34;42.19
70338;BME280;57757;53.198;19.646;2023-05-01T02:31:37;100812.91;;;2.32;42.28
70338;BME280;57757;53.198;19.646;2023-05-01T02:34:07;100811.02;;;2.33;42.30
70338;BME280;57757;53.198;19.646;2023-05-01T02:36:35;100812.42;;;2.34;42.33
70338;BME280;57757;53.198;19.646;2023-05-01T02:39:02;100815.86;;;2.35;42.49
70338;BME280;57757;53.198;19.646;2023-05-01T02:41:31;100815.03;;;2.36;42.49
70338;BME280;57757;53.198;19.646;2023-05-01T02:44:02;100809.54;;;2.36;42.46
70338;BME280;57757;53.198;19.646;2023-05-01T02:46:32;100809.75;;;2.38;42.62
70338;BME280;57757;53.198;19.646;2023-05-01T02:49:02;100812.36;;;2.39;42.64
70338;BME280;57757;53.198;19.646;2023-05-01T02:51:31;100810.52;;;2.43;42.85
70338;BME280;57757;53.198;19.646;2023-05-01T02:54:01;100808.52;;;2.46;42.98
70338;BME280;57757;53.198;19.646;2023-05-01T02:56:29;100813.55;;;2.48;42.99
70338;BME280;57757;53.198;19.646;2023-05-01T02:58:57;100811.86;;;2.50;43.19
70338;BME280;57757;53.198;19.646;2023-05-01T03:01:25;100812.24;;;2.52;43.30
70338;BME280;57757;53.198;19.646;2023-05-01T03:03:54;100815.86;;;2.52;43.19
70338;BME280;57757;53.198;19.646;2023-05-01T03:06:21;100814.96;;;2.51;43.18
70338;BME280;57757;53.198;19.646;2023-05-01T03:08:49;100814.61;;;2.50;43.23
70338;BME280;57757;53.198;19.646;2023-05-01T03:11:18;100813.39;;;2.48;43.24
70338;BME280;57757;53.198;19.646;2023-05-01T03:13:45;100812.65;;;2.47;43.28
70338;BME280;57757;53.198;19.646;2023-05-01T03:16:13;100809.05;;;2.47;43.37
70338;BME280;57757;53.198;19.646;2023-05-01T03:18:41;100809.23;;;2.47;43.37
70338;BME280;57757;53.198;19.646;2023-05-01T03:21:09;100811.27;;;2.46;43.50
70338;BME280;57757;53.198;19.646;2023-05-01T03:23:39;100807.49;;;2.45;43.56
70338;BME280;57757;53.198;19.646;2023-05-01T03:26:06;100813.83;;;2.45;43.55
70338;BME280;57757;53.198;19.646;2023-05-01T03:28:34;100813.14;;;2.45;43.51
70338;BME280;57757;53.198;19.646;2023-05-01T03:31:01;100813.52;;;2.47;43.73
70338;BME280;57757;53.198;19.646;2023-05-01T03:33:29;100816.67;;;2.50;43.86
70338;BME280;57757;53.198;19.646;2023-05-01T03:36:02;100812.70;;;2.50;43.81
70338;BME280;57757;53.198;19.646;2023-05-01T03:38:31;100812.83;;;2.47;43.75
70338;BME280;57757;53.198;19.646;2023-05-01T03:40:58;100816.77;;;2.47;43.85
70338;BME280;57757;53.198;19.646;2023-05-01T03:43:26;100816.27;;;2.48;43.80
70338;BME280;57757;53.198;19.646;2023-05-01T03:45:54;100816.48;;;2.49;43.90
70338;BME280;57757;53.198;19.646;2023-05-01T03:48:22;100819.13;;;2.53;43.99
70338;BME280;57757;53.198;19.646;2023-05-01T03:50:51;100822.13;;;2.57;43.99
70338;BME280;57757;53.198;19.646;2023-05-01T03:53:19;100821.71;;;2.62;43.97
70338;BME280;57757;53.198;19.646;2023-05-01T03:55:46;100818.71;;;2.67;44.00
70338;BME280;57757;53.198;19.646;2023-05-01T03:58:14;100820.21;;;2.73;44.01
70338;BME280;57757;53.198;19.646;2023-05-01T04:00:42;100818.94;;;2.79;43.98
70338;BME280;57757;53.198;19.646;2023-05-01T04:03:09;100817.48;;;2.84;44.00
70338;BME280;57757;53.198;19.646;2023-05-01T04:05:37;100819.30;;;2.90;44.11
70338;BME280;57757;53.198;19.646;2023-05-01T04:08:05;100822.54;;;2.98;44.20
70338;BME280;57757;53.198;19.646;2023-05-01T04:10:34;100816.84;;;3.06;44.20
70338;BME280;57757;53.198;19.646;2023-05-01T04:13:02;100821.80;;;3.15;44.22
70338;BME280;57757;53.198;19.646;2023-05-01T04:15:31;100824.20;;;3.25;44.17
70338;BME280;57757;53.198;19.646;2023-05-01T04:17:58;100823.30;;;3.33;44.13
70338;BME280;57757;53.198;19.646;2023-05-01T04:20:26;100818.61;;;3.41;44.07
70338;BME280;57757;53.198;19.646;2023-05-01T04:22:54;100814.95;;;3.49;43.98
70338;BME280;57757;53.198;19.646;2023-05-01T04:25:22;100813.17;;;3.58;44.14
70338;BME280;57757;53.198;19.646;2023-05-01T04:27:49;100816.27;;;3.69;44.12
70338;BME280;57757;53.198;19.646;2023-05-01T04:30:17;100818.48;;;3.78;44.03
70338;BME280;57757;53.198;19.646;2023-05-01T04:32:45;100813.10;;;3.87;44.15
70338;BME280;57757;53.198;19.646;2023-05-01T04:35:13;100810.27;;;3.95;44.09
70338;BME280;57757;53.198;19.646;2023-05-01T04:37:40;100812.48;;;4.06;44.16
70338;BME280;57757;53.198;19.646;2023-05-01T04:40:09;100810.02;;;4.15;44.22
70338;BME280;57757;53.198;19.646;2023-05-01T04:42:38;100813.06;;;4.25;44.14
70338;BME280;57757;53.198;19.646;2023-05-01T04:45:06;100808.52;;;4.34;44.04
70338;BME280;57757;53.198;19.646;2023-05-01T04:47:34;100808.11;;;4.43;44.08
70338;BME280;57757;53.198;19.646;2023-05-01T04:50:01;100806.31;;;4.51;44.06
70338;BME280;57757;53.198;19.646;2023-05-01T04:52:29;100805.04;;;4.61;44.12
70338;BME280;57757;53.198;19.646;2023-05-01T04:54:57;100805.14;;;4.71;44.12
70338;BME280;57757;53.198;19.646;2023-05-01T04:57:25;100804.59;;;4.83;44.10
70338;BME280;57757;53.198;19.646;2023-05-01T04:59:53;100797.96;;;4.94;44.06
70338;BME280;57757;53.198;19.646;2023-05-01T05:02:21;100798.23;;;5.05;44.11
70338;BME280;57757;53.198;19.646;2023-05-01T05:04:50;100801.60;;;5.16;44.25
70338;BME280;57757;53.198;19.646;2023-05-01T05:07:20;100799.45;;;5.27;44.07
70338;BME280;57757;53.198;19.646;2023-05-01T05:09:47;100796.77;;;5.39;43.90
70338;BME280;57757;53.198;19.646;2023-05-01T05:12:15;100793.06;;;5.51;43.96
70338;BME280;57757;53.198;19.646;2023-05-01T05:14:42;100795.55;;;5.62;43.80
70338;BME280;57757;53.198;19.646;2023-05-01T05:17:10;100794.41;;;5.73;43.63
70338;BME280;57757;53.198;19.646;2023-05-01T05:19:38;100792.73;;;5.81;43.68
70338;BME280;57757;53.198;19.646;2023-05-01T05:22:05;100791.95;;;5.91;43.64
70338;BME280;57757;53.198;19.646;2023-05-01T05:24:33;100789.93;;;6.02;43.57
70338;BME280;57757;53.198;19.646;2023-05-01T05:27:00;100792.23;;;6.12;43.49
70338;BME280;57757;53.198;19.646;2023-05-01T05:29:28;100796.59;;;6.22;43.39
70338;BME280;57757;53.198;19.646;2023-05-01T05:31:55;100797.65;;;6.31;43.39
70338;BME280;57757;53.198;19.646;2023-05-01T05:34:24;100795.62;;;6.40;43.32
70338;BME280;57757;53.198;19.646;2023-05-01T05:36:53;100792.73;;;6.52;43.26
70338;BME280;57757;53.198;19.646;2023-05-01T05:39:20;100796.54;;;6.63;43.29
70338;BME280;57757;53.198;19.646;2023-05-01T05:41:49;100793.10;;;6.72;42.98
70338;BME280;57757;53.198;19.646;2023-05-01T05:44:19;100791.23;;;6.80;42.90
70338;BME280;57757;53.198;19.646;2023-05-01T05:46:47;100791.57;;;6.89;42.77
70338;BME280;57757;53.198;19.646;2023-05-01T05:49:14;100788.98;;;6.99;42.79
70338;BME280;57757;53.198;19.646;2023-05-01T05:51:42;100787.61;;;7.09;42.83
70338;BME280;57757;53.198;19.646;2023-05-01T05:54:10;100787.27;;;7.19;42.73
70338;BME280;57757;53.198;19.646;2023-05-01T05:56:38;100788.99;;;7.31;42.65
70338;BME280;57757;53.198;19.646;2023-05-01T05:59:05;100792.80;;;7.40;42.49
70338;BME280;57757;53.198;19.646;2023-05-01T06:01:33;100794.86;;;7.49;42.47
70338;BME280;57757;53.198;19.646;2023-05-01T06:04:01;100795.02;;;7.58;42.40
70338;BME280;57757;53.198;19.646;2023-05-01T06:06:28;100793.98;;;7.70;42.24
70338;BME280;57757;53.198;19.646;2023-05-01T06:08:56;100794.27;;;7.82;42.05
70338;BME280;57757;53.198;19.646;2023-05-01T06:11:24;100795.10;;;7.96;42.12
70338;BME280;57757;53.198;19.646;2023-05-01T06:13:54;100796.96;;;8.07;41.94
70338;BME280;57757;53.198;19.646;2023-05-01T06:16:23;100795.71;;;8.18;41.66
70338;BME280;57757;53.198;19.646;2023-05-01T06:18:52;100801.58;;;8.29;41.80
70338;BME280;57757;53.198;19.646;2023-05-01T06:21:19;100797.56;;;8.40;41.61
70338;BME280;57757;53.198;19.646;2023-05-01T06:23:47;100798.70;;;8.52;41.50
70338;BME280;57757;53.198;19.646;2023-05-01T06:26:14;100796.41;;;8.60;41.44
70338;BME280;57757;53.198;19.646;2023-05-01T06:28:42;100798.80;;;8.68;41.36
70338;BME280;57757;53.198;19.646;2023-05-01T06:31:09;100802.91;;;8.74;41.28
70338;BME280;57757;53.198;19.646;2023-05-01T06:33:37;100801.33;;;8.80;41.15
70338;BME280;57757;53.198;19.646;2023-05-01T06:36:05;100804.25;;;8.85;41.03
70338;BME280;57757;53.198;19.646;2023-05-01T06:38:32;100800.73;;;8.88;41.22
70338;BME280;57757;53.198;19.646;2023-05-01T06:41:01;100799.65;;;8.94;41.09
70338;BME280;57757;53.198;19.646;2023-05-01T06:43:28;100796.83;;;9.01;40.99
70338;BME280;57757;53.198;19.646;2023-05-01T06:45:57;100793.31;;;9.08;40.93
70338;BME280;57757;53.198;19.646;2023-05-01T06:48:25;100789.98;;;9.14;41.02
70338;BME280;57757;53.198;19.646;2023-05-01T06:50:52;100792.31;;;9.24;40.86
70338;BME280;57757;53.198;19.646;2023-05-01T06:53:20;100790.88;;;9.30;40.72
70338;BME280;57757;53.198;19.646;2023-05-01T06:55:47;100787.54;;;9.35;40.82
70338;BME280;57757;53.198;19.646;2023-05-01T06:58:15;100785.57;;;9.41;40.83
70338;BME280;57757;53.198;19.646;2023-05-01T07:00:48;100780.63;;;9.50;40.80
70338;BME280;57757;53.198;19.646;2023-05-01T07:03:16;100780.02;;;9.58;40.73
70338;BME280;57757;53.198;19.646;2023-05-01T07:05:44;100777.01;;;9.65;40.79
70338;BME280;57757;53.198;19.646;2023-05-01T07:08:12;100777.95;;;9.74;40.59
70338;BME280;57757;53.198;19.646;2023-05-01T07:10:40;100771.28;;;9.81;40.67
70338;BME280;57757;53.198;19.646;2023-05-01T07:13:09;100768.40;;;9.90;40.66
70338;BME280;57757;53.198;19.646;2023-05-01T07:15:37;100761.33;;;9.99;40.60
70338;BME280;57757;53.198;19.646;2023-05-01T07:18:04;100761.04;;;10.10;40.60
70338;BME280;57757;53.198;19.646;2023-05-01T07:20:33;100759.57;;;10.19;40.51
70338;BME280;57757;53.198;19.646;2023-05-01T07:23:03;100757.58;;;10.26;40.42
70338;BME280;57757;53.198;19.646;2023-05-01T07:25:43;100753.11;;;10.35;40.33
70338;BME280;57757;53.198;19.646;2023-05-01T07:28:11;100753.01;;;10.41;40.40
70338;BME280;57757;53.198;19.646;2023-05-01T07:30:39;100754.61;;;10.50;40.34
70338;BME280;57757;53.198;19.646;2023-05-01T07:33:06;100755.19;;;10.59;40.47
70338;BME280;57757;53.198;19.646;2023-05-01T07:35:34;100756.52;;;10.63;40.14
70338;BME280;57757;53.198;19.646;2023-05-01T07:38:03;100757.85;;;10.68;40.19
70338;BME280;57757;53.198;19.646;2023-05-01T07:40:34;100758.98;;;10.73;40.08
70338;BME280;57757;53.198;19.646;2023-05-01T07:43:03;100756.14;;;10.76;40.08
70338;BME280;57757;53.198;19.646;2023-05-01T07:45:31;100758.17;;;10.81;40.08
70338;BME280;57757;53.198;19.646;2023-05-01T07:47:58;100755.64;;;10.86;40.03
70338;BME280;57757;53.198;19.646;2023-05-01T07:50:27;100758.15;;;10.93;40.02
70338;BME280;57757;53.198;19.646;2023-05-01T07:52:55;100755.95;;;11.00;40.01
70338;BME280;57757;53.198;19.646;2023-05-01T07:55:24;100761.49;;;11.01;39.81
70338;BME280;57757;53.198;19.646;2023-05-01T07:57:51;100754.61;;;10.97;39.66
70338;BME280;57757;53.198;19.646;2023-05-01T08:00:19;100751.87;;;10.94;39.68
70338;BME280;57757;53.198;19.646;2023-05-01T08:02:47;100748.00;;;10.96;39.79
70338;BME280;57757;53.198;19.646;2023-05-01T08:05:15;100751.39;;;11.02;39.85
70338;BME280;57757;53.198;19.646;2023-05-01T08:07:42;100749.91;;;11.08;39.74
70338;BME280;57757;53.198;19.646;2023-05-01T08:10:10;100746.61;;;11.18;39.76
70338;BME280;57757;53.198;19.646;2023-05-01T08:12:37;100751.31;;;11.28;39.78
70338;BME280;57757;53.198;19.646;2023-05-01T08:15:06;100744.29;;;11.41;39.80
70338;BME280;57757;53.198;19.646;2023-05-01T08:17:36;100742.20;;;11.49;39.60
70338;BME280;57757;53.198;19.646;2023-05-01T08:20:04;100742.59;;;11.58;39.56
70338;BME280;57757;53.198;19.646;2023-05-01T08:22:31;100742.02;;;11.69;39.59
70338;BME280;57757;53.198;19.646;2023-05-01T08:24:59;100737.70;;;11.78;39.26
70338;BME280;57757;53.198;19.646;2023-05-01T08:27:27;100735.07;;;11.87;39.01
70338;BME280;57757;53.198;19.646;2023-05-01T08:29:54;100729.38;;;12.01;39.03
70338;BME280;57757;53.198;19.646;2023-05-01T08:32:23;100728.19;;;12.17;38.86
70338;BME280;57757;53.198;19.646;2023-05-01T08:34:51;100725.80;;;12.30;38.88
70338;BME280;57757;53.198;19.646;2023-05-01T08:37:18;100726.60;;;12.41;38.90
70338;BME280;57757;53.198;19.646;2023-05-01T08:39:46;100723.38;;;12.52;38.41
70338;BME280;57757;53.198;19.646;2023-05-01T08:42:13;100723.33;;;12.62;38.34
70338;BME280;57757;53.198;19.646;2023-05-01T08:44:42;100725.30;;;12.67;38.20
70338;BME280;57757;53.198;19.646;2023-05-01T08:47:17;100720.52;;;12.70;38.26
70338;BME280;57757;53.198;19.646;2023-05-01T08:49:47;100721.98;;;12.82;38.39
70338;BME280;57757;53.198;19.646;2023-05-01T08:52:17;100724.10;;;12.96;38.40
70338;BME280;57757;53.198;19.646;2023-05-01T08:54:49;100726.04;;;13.09;38.12
70338;BME280;57757;53.198;19.646;2023-05-01T08:57:17;100727.50;;;13.14;37.87
70338;BME280;57757;53.198;19.646;2023-05-01T08:59:47;100722.12;;;13.13;37.63
70338;BME280;57757;53.198;19.646;2023-05-01T09:02:14;100718.55;;;13.08;37.42
70338;BME280;57757;53.198;19.646;2023-05-01T09:04:42;100712.11;;;13.15;37.55
70338;BME280;57757;53.198;19.646;2023-05-01T09:07:10;100709.70;;;13.34;37.80
70338;BME280;57757;53.198;19.646;2023-05-01T09:09:39;100706.73;;;13.53;37.79
70338;BME280;57757;53.198;19.646;2023-05-01T09:12:34;100702.93;;;13.70;37.84
70338;BME280;57757;53.198;19.646;2023-05-01T09:15:02;100699.04;;;13.90;37.33
70338;BME280;57757;53.198;19.646;2023-05-01T09:17:31;100702.10;;;14.06;37.18
70338;BME280;57757;53.198;19.646;2023-05-01T09:20:01;100701.65;;;14.26;37.22
70338;BME280;57757;53.198;19.646;2023-05-01T09:22:33;100699.16;;;14.45;37.14
70338;BME280;57757;53.198;19.646;2023-05-01T09:25:01;100694.68;;;14.59;36.98
70338;BME280;57757;53.198;19.646;2023-05-01T09:27:34;100692.98;;;14.69;36.73
70338;BME280;57757;53.198;19.646;2023-05-01T09:30:05;100685.19;;;14.88;36.77
70338;BME280;57757;53.198;19.646;2023-05-01T09:32:33;100683.46;;;15.13;36.76
70338;BME280;57757;53.198;19.646;2023-05-01T09:35:18;100683.45;;;15.33;36.67
70338;BME280;57757;53.198;19.646;2023-05-01T09:37:48;100677.05;;;15.61;36.62
70338;BME280;57757;53.198;19.646;2023-05-01T09:40:16;100674.96;;;15.89;36.77
70338;BME280;57757;53.198;19.646;2023-05-01T09:42:51;100676.21;;;16.16;36.54
70338;BME280;57757;53.198;19.646;2023-05-01T09:45:19;100670.37;;;16.31;36.28
70338;BME280;57757;53.198;19.646;2023-05-01T09:47:47;100671.46;;;16.43;36.08
70338;BME280;57757;53.198;19.646;2023-05-01T09:50:31;100670.02;;;16.62;36.13
70338;BME280;57757;53.198;19.646;2023-05-01T09:53:03;100663.36;;;16.87;35.83
70338;BME280;57757;53.198;19.646;2023-05-01T09:55:33;100665.67;;;16.91;35.42
70338;BME280;57757;53.198;19.646;2023-05-01T09:58:01;100664.02;;;16.89;35.40
70338;BME280;57757;53.198;19.646;2023-05-01T10:00:28;100661.30;;;16.78;35.07
70338;BME280;57757;53.198;19.646;2023-05-01T10:02:56;100649.92;;;16.76;35.37
70338;BME280;57757;53.198;19.646;2023-05-01T10:05:24;100646.46;;;17.08;35.56
70338;BME280;57757;53.198;19.646;2023-05-01T10:08:00;100640.88;;;17.43;35.38
70338;BME280;57757;53.198;19.646;2023-05-01T10:10:30;100637.65;;;17.69;35.31
70338;BME280;57757;53.198;19.646;2023-05-01T10:13:12;100637.32;;;17.91;34.88
70338;BME280;57757;53.198;19.646;2023-05-01T10:15:40;100633.23;;;18.07;34.79
70338;BME280;57757;53.198;19.646;2023-05-01T10:18:09;100633.30;;;18.21;34.57
70338;BME280;57757;53.198;19.646;2023-05-01T10:20:39;100633.20;;;18.33;34.61
70338;BME280;57757;53.198;19.646;2023-05-01T10:23:07;100629.85;;;18.33;34.23
70338;BME280;57757;53.198;19.646;2023-05-01T10:25:35;100624.56;;;18.30;34.25
70338;BME280;57757;53.198;19.646;2023-05-01T10:28:04;100626.45;;;18.34;34.28
70338;BME280;57757;53.198;19.646;2023-05-01T10:30:33;100622.05;;;18.41;34.07
70338;BME280;57757;53.198;19.646;2023-05-01T10:33:02;100611.14;;;18.49;34.02
70338;BME280;57757;53.198;19.646;2023-05-01T10:35:34;100610.35;;;18.72;34.18
70338;BME280;57757;53.198;19.646;2023-05-01T10:38:06;100598.61;;;19.05;34.17
70338;BME280;57757;53.198;19.646;2023-05-01T10:43:26;100592.29;;;19.31;33.49
70338;BME280;57757;53.198;19.646;2023-05-01T10:48:55;100589.98;;;19.65;33.57
70338;BME280;57757;53.198;19.646;2023-05-01T10:51:24;100585.67;;;19.83;33.38
70338;BME280;57757;53.198;19.646;2023-05-01T10:59:05;100579.10;;;20.90;32.89
70338;BME280;57757;53.198;19.646;2023-05-01T11:04:03;100572.20;;;21.28;32.67
70338;BME280;57757;53.198;19.646;2023-05-01T11:06:31;100569.95;;;21.44;32.18
70338;BME280;57757;53.198;19.646;2023-05-01T11:09:00;100560.90;;;21.36;32.04
70338;BME280;57757;53.198;19.646;2023-05-01T11:14:12;100560.92;;;22.14;32.47
70338;BME280;57757;53.198;19.646;2023-05-01T11:16:40;100557.73;;;22.67;32.31
70338;BME280;57757;53.198;19.646;2023-05-01T11:21:49;100548.96;;;23.07;31.39
70338;BME280;57757;53.198;19.646;2023-05-01T11:24:30;100547.34;;;23.02;31.08
70338;BME280;57757;53.198;19.646;2023-05-01T11:26:58;100542.94;;;23.07;30.94
70338;BME280;57757;53.198;19.646;2023-05-01T11:29:31;100546.13;;;23.27;30.70
70338;BME280;57757;53.198;19.646;2023-05-01T11:32:00;100542.54;;;23.30;30.45
70338;BME280;57757;53.198;19.646;2023-05-01T11:34:34;100534.91;;;23.43;30.56
70338;BME280;57757;53.198;19.646;2023-05-01T11:37:03;100530.96;;;23.75;31.02
70338;BME280;57757;53.198;19.646;2023-05-01T11:39:31;100532.59;;;24.23;30.70
70338;BME280;57757;53.198;19.646;2023-05-01T11:42:09;100533.09;;;24.54;30.45
70338;BME280;57757;53.198;19.646;2023-05-01T11:44:36;100526.04;;;24.72;30.31
70338;BME280;57757;53.198;19.646;2023-05-01T11:47:04;100522.55;;;24.96;30.23
70338;BME280;57757;53.198;19.646;2023-05-01T11:49:34;100520.67;;;25.18;30.02
70338;BME280;57757;53.198;19.646;2023-05-01T11:52:02;100516.09;;;25.47;29.81
70338;BME280;57757;53.198;19.646;2023-05-01T11:54:29;100515.39;;;25.79;29.71
70338;BME280;57757;53.198;19.646;2023-05-01T11:56:58;100514.58;;;25.91;29.11
70338;BME280;57757;53.198;19.646;2023-05-01T11:59:27;100515.88;;;25.86;28.75
70338;BME280;57757;53.198;19.646;2023-05-01T12:01:57;100514.45;;;25.99;28.78
70338;BME280;57757;53.198;19.646;2023-05-01T12:04:26;100511.73;;;25.91;28.49
70338;BME280;57757;53.198;19.646;2023-05-01T12:06:58;100505.48;;;25.89;28.63
70338;BME280;57757;53.198;19.646;2023-05-01T12:09:26;100500.79;;;26.35;28.98
70338;BME280;57757;53.198;19.646;2023-05-01T12:11:56;100498.48;;;26.83;28.37
70338;BME280;57757;53.198;19.646;2023-05-01T12:14:26;100494.38;;;26.62;27.91
70338;BME280;57757;53.198;19.646;2023-05-01T12:16:54;100494.79;;;26.49;27.82
70338;BME280;57757;53.198;19.646;2023-05-01T12:19:23;100486.75;;;26.64;27.87
70338;BME280;57757;53.198;19.646;2023-05-01T12:22:07;100483.04;;;27.09;27.93
70338;BME280;57757;53.198;19.646;2023-05-01T12:24:34;100483.84;;;27.54;27.61
70338;BME280;57757;53.198;19.646;2023-05-01T12:27:02;100477.29;;;27.75;27.24
70338;BME280;57757;53.198;19.646;2023-05-01T12:29:47;100474.15;;;27.92;27.03
70338;BME280;57757;53.198;19.646;2023-05-01T12:32:15;100470.18;;;27.98;26.75
70338;BME280;57757;53.198;19.646;2023-05-01T12:34:44;100466.02;;;28.07;26.80
70338;BME280;57757;53.198;19.646;2023-05-01T12:37:11;100465.33;;;28.29;26.66
70338;BME280;57757;53.198;19.646;2023-05-01T12:39:41;100463.96;;;28.57;26.64
70338;BME280;57757;53.198;19.646;2023-05-01T12:42:16;100460.57;;;29.00;26.47
70338;BME280;57757;53.198;19.646;2023-05-01T12:44:45;100459.03;;;29.23;25.96
70338;BME280;57757;53.198;19.646;2023-05-01T12:47:12;100455.32;;;29.36;25.92
70338;BME280;57757;53.198;19.646;2023-05-01T12:49:40;100456.20;;;29.63;25.94
70338;BME280;57757;53.198;19.646;2023-05-01T12:52:08;100450.13;;;30.10;25.86
70338;BME280;57757;53.198;19.646;2023-05-01T12:54:38;100450.43;;;30.36;25.50
70338;BME280;57757;53.198;19.646;2023-05-01T12:59:39;100436.80;;;30.36;25.45
70338;BME280;57757;53.198;19.646;2023-05-01T13:02:16;100435.16;;;30.52;25.18
70338;BME280;57757;53.198;19.646;2023-05-01T13:04:45;100437.27;;;30.75;24.96
70338;BME280;57757;53.198;19.646;2023-05-01T13:07:17;100432.06;;;30.98;24.82
70338;BME280;57757;53.198;19.646;2023-05-01T13:09:57;100434.46;;;31.22;24.62
70338;BME280;57757;53.198;19.646;2023-05-01T13:12:27;100425.60;;;31.26;24.20
70338;BME280;57757;53.198;19.646;2023-05-01T13:14:55;100422.46;;;31.25;24.03
70338;BME280;57757;53.198;19.646;2023-05-01T13:17:27;100422.05;;;31.46;24.13
70338;BME280;57757;53.198;19.646;2023-05-01T13:19:59;100414.17;;;31.72;24.05
70338;BME280;57757;53.198;19.646;2023-05-01T13:22:35;100409.59;;;32.12;23.97
70338;BME280;57757;53.198;19.646;2023-05-01T13:25:13;100405.92;;;32.69;23.88
70338;BME280;57757;53.198;19.646;2023-05-01T13:27:49;100409.36;;;33.12;23.48
70338;BME280;57757;53.198;19.646;2023-05-01T13:30:19;100408.91;;;33.24;23.28
70338;BME280;57757;53.198;19.646;2023-05-01T13:32:50;100407.45;;;33.33;23.17
70338;BME280;57757;53.198;19.646;2023-05-01T13:35:25;100401.84;;;33.54;22.92
70338;BME280;57757;53.198;19.646;2023-05-01T13:37:53;100405.65;;;33.85;22.78